• Join FlightAware (Why Join?)
  • Login
  • US Flag 
09:12AM EDT


 

Airport Tracker/Info


-or-


 

Live Flight TrackerFlight Track Log ✈ AMF1722 ✈ 16-Jul-2013 ✈ KLBB - KAMA

Flight Track Log - Related Links

Times and Time Zones

All times are in EDT time to prevent confusion due to time zone crossing. See the AMF1722 flight status page for this flight to view local times or setup timezone preferences in your user account.

Time Position Orientation Groundspeed Altitude Reporting Facility
EDT Latitude Longitude Course Direction KTS MPH feet Rate Location/Type
07:51AM 33.6486 -101.8322 233° Southwest 140 161 3,800  Level Fort Worth Center
07:53AM 33.6289 -101.8639 233° Southwest 185 213 5,400 900 Climbing Fort Worth Center
07:54AM 33.6875 -101.8542 North 230 265 5,900 660 Climbing Fort Worth Center
07:55AM 33.7481 -101.8522 North 236 272 6,800 840 Climbing Fort Worth Center
07:56AM 33.8194 -101.8408 North 237 273 7,700 780 Climbing Fort Worth Center
07:57AM 33.8844 -101.8317 North 238 274 8,400 600 Climbing Fort Worth Center
07:58AM 33.9514 -101.8253 North 244 281 9,000 240 Climbing Fort Worth Center
07:59AM 34.0375 -101.8119 North 284 327 9,000  Level Fort Worth Center
08:00AM 34.1092 -101.7931 12° North 273 314 9,000  Level Fort Worth Center
08:01AM 34.1847 -101.7769 10° North 268 308 9,000  Level Fort Worth Center
08:02AM 34.2575 -101.7881 353° North 268 308 9,000  Level Fort Worth Center
08:04AM 34.3811 -101.7692 North 269 310 9,000  Level Albuquerque Center
08:05AM 34.4561 -101.7550 North 272 313 9,000  Level Albuquerque Center
08:06AM 34.5311 -101.7492 North 271 312 9,000  Level Albuquerque Center
08:07AM 34.6197 -101.7472 North 268 308 9,100  Climbing Albuquerque Center
08:08AM 34.6950 -101.7458 North 268 308 9,000 -120 Descending Albuquerque Center
08:09AM 34.7683 -101.7728 343° North 275 316 8,900 -420 Descending Albuquerque Center
08:10AM 34.8422 -101.7972 345° North 274 315 8,200 -1,140 Descending Albuquerque Center
08:11AM 34.9114 -101.8253 342° North 270 311 6,700 -1,380 Descending Albuquerque Center
08:12AM 34.9706 -101.8483 342° North 243 280 5,500 -720 Descending Albuquerque Center
08:13AM 35.0275 -101.8672 345° North 223 257 5,300 -120 Descending Albuquerque Center
08:14AM 35.0853 -101.8717 356° North 215 247 5,300  Level Albuquerque Center
08:15AM 35.1281 -101.8289 39° Northeast 214 246 5,300 -240 Level Albuquerque Center
08:16AM 35.1575 -101.7919 46° Northeast 177 204 4,900 -540 Descending Albuquerque Center
08:17AM 35.1825 -101.7606 46° Northeast 149 171 4,300 -600 Descending Albuquerque Center
08:18AM 35.2094 -101.7272 45° Northeast 138 159 3,800 -540 Descending Albuquerque Center